sensor_id;sensor_type;location;lat;lon;timestamp;P1;durP1;ratioP1;P2;durP2;ratioP2
6739;SDS011;3407;49.882;10.920;2022-12-28T00:02:39;10.63;;;7.07;;
6739;SDS011;3407;49.882;10.920;2022-12-28T00:07:34;11.53;;;6.77;;
6739;SDS011;3407;49.882;10.920;2022-12-28T00:12:30;11.00;;;6.67;;
6739;SDS011;3407;49.882;10.920;2022-12-28T00:17:26;11.53;;;7.67;;
6739;SDS011;3407;49.882;10.920;2022-12-28T00:22:22;16.53;;;7.73;;
6739;SDS011;3407;49.882;10.920;2022-12-28T00:27:17;13.83;;;8.93;;
6739;SDS011;3407;49.882;10.920;2022-12-28T00:32:13;13.73;;;8.17;;
6739;SDS011;3407;49.882;10.920;2022-12-28T00:37:08;15.80;;;8.13;;
6739;SDS011;3407;49.882;10.920;2022-12-28T00:42:04;12.13;;;7.60;;
6739;SDS011;3407;49.882;10.920;2022-12-28T00:46:59;16.63;;;8.47;;
6739;SDS011;3407;49.882;10.920;2022-12-28T00:51:55;18.13;;;7.10;;
6739;SDS011;3407;49.882;10.920;2022-12-28T00:56:50;10.70;;;6.70;;
6739;SDS011;3407;49.882;10.920;2022-12-28T01:01:46;11.70;;;7.10;;
6739;SDS011;3407;49.882;10.920;2022-12-28T01:06:41;14.30;;;7.07;;
6739;SDS011;3407;49.882;10.920;2022-12-28T01:11:37;6.03;;;5.50;;
6739;SDS011;3407;49.882;10.920;2022-12-28T01:16:34;6.63;;;6.03;;
6739;SDS011;3407;49.882;10.920;2022-12-28T01:21:30;10.73;;;6.93;;
6739;SDS011;3407;49.882;10.920;2022-12-28T01:26:27;11.07;;;5.83;;
6739;SDS011;3407;49.882;10.920;2022-12-28T01:31:23;6.60;;;5.97;;
6739;SDS011;3407;49.882;10.920;2022-12-28T01:36:22;9.10;;;7.10;;
6739;SDS011;3407;49.882;10.920;2022-12-28T01:41:19;15.77;;;5.93;;
6739;SDS011;3407;49.882;10.920;2022-12-28T01:46:16;9.97;;;5.70;;
6739;SDS011;3407;49.882;10.920;2022-12-28T01:51:18;5.83;;;5.27;;
6739;SDS011;3407;49.882;10.920;2022-12-28T01:56:15;6.43;;;5.83;;
6739;SDS011;3407;49.882;10.920;2022-12-28T02:01:10;12.20;;;5.43;;
6739;SDS011;3407;49.882;10.920;2022-12-28T02:06:07;6.37;;;4.80;;
6739;SDS011;3407;49.882;10.920;2022-12-28T02:11:05;10.67;;;5.07;;
6739;SDS011;3407;49.882;10.920;2022-12-28T02:16:02;7.63;;;5.40;;
6739;SDS011;3407;49.882;10.920;2022-12-28T02:26:17;8.23;;;5.10;;
6739;SDS011;3407;49.882;10.920;2022-12-28T02:31:28;6.30;;;5.37;;
6739;SDS011;3407;49.882;10.920;2022-12-28T02:36:54;5.40;;;4.90;;
6739;SDS011;3407;49.882;10.920;2022-12-28T02:41:59;6.07;;;5.50;;
6739;SDS011;3407;49.882;10.920;2022-12-28T02:46:57;5.80;;;5.20;;
6739;SDS011;3407;49.882;10.920;2022-12-28T03:02:51;8.03;;;5.33;;
6739;SDS011;3407;49.882;10.920;2022-12-28T03:07:57;10.90;;;5.33;;
6739;SDS011;3407;49.882;10.920;2022-12-28T03:13:16;6.27;;;5.10;;
6739;SDS011;3407;49.882;10.920;2022-12-28T03:18:37;6.27;;;5.40;;
6739;SDS011;3407;49.882;10.920;2022-12-28T03:23:55;7.23;;;5.60;;
6739;SDS011;3407;49.882;10.920;2022-12-28T03:29:10;9.60;;;5.93;;
6739;SDS011;3407;49.882;10.920;2022-12-28T03:34:26;7.57;;;5.47;;
6739;SDS011;3407;49.882;10.920;2022-12-28T03:44:30;10.80;;;6.17;;
6739;SDS011;3407;49.882;10.920;2022-12-28T03:49:29;8.80;;;6.13;;
6739;SDS011;3407;49.882;10.920;2022-12-28T03:54:25;8.83;;;6.10;;
6739;SDS011;3407;49.882;10.920;2022-12-28T03:59:20;6.50;;;5.90;;
6739;SDS011;3407;49.882;10.920;2022-12-28T04:04:16;9.30;;;6.97;;
6739;SDS011;3407;49.882;10.920;2022-12-28T04:09:12;9.17;;;6.70;;
6739;SDS011;3407;49.882;10.920;2022-12-28T04:14:07;7.93;;;6.53;;
6739;SDS011;3407;49.882;10.920;2022-12-28T04:19:03;9.03;;;6.17;;
6739;SDS011;3407;49.882;10.920;2022-12-28T04:23:58;6.97;;;6.03;;
6739;SDS011;3407;49.882;10.920;2022-12-28T04:28:54;7.60;;;6.33;;
6739;SDS011;3407;49.882;10.920;2022-12-28T04:33:57;8.90;;;6.30;;
6739;SDS011;3407;49.882;10.920;2022-12-28T04:38:53;8.10;;;7.10;;
6739;SDS011;3407;49.882;10.920;2022-12-28T04:43:49;9.43;;;6.73;;
6739;SDS011;3407;49.882;10.920;2022-12-28T04:48:45;8.27;;;6.83;;
6739;SDS011;3407;49.882;10.920;2022-12-28T04:53:40;9.33;;;6.20;;
6739;SDS011;3407;49.882;10.920;2022-12-28T04:58:36;8.90;;;6.07;;
6739;SDS011;3407;49.882;10.920;2022-12-28T05:03:32;8.60;;;6.63;;
6739;SDS011;3407;49.882;10.920;2022-12-28T05:08:32;8.57;;;6.67;;
6739;SDS011;3407;49.882;10.920;2022-12-28T05:13:29;11.43;;;7.43;;
6739;SDS011;3407;49.882;10.920;2022-12-28T05:18:25;9.37;;;7.17;;
6739;SDS011;3407;49.882;10.920;2022-12-28T05:23:20;9.77;;;7.33;;
6739;SDS011;3407;49.882;10.920;2022-12-28T05:28:16;10.80;;;7.63;;
6739;SDS011;3407;49.882;10.920;2022-12-28T05:33:11;8.70;;;7.50;;
6739;SDS011;3407;49.882;10.920;2022-12-28T05:38:07;7.20;;;6.40;;
6739;SDS011;3407;49.882;10.920;2022-12-28T05:43:02;12.27;;;7.40;;
6739;SDS011;3407;49.882;10.920;2022-12-28T05:47:58;10.30;;;7.40;;
6739;SDS011;3407;49.882;10.920;2022-12-28T05:52:53;8.27;;;6.43;;
6739;SDS011;3407;49.882;10.920;2022-12-28T05:57:49;8.47;;;7.07;;
6739;SDS011;3407;49.882;10.920;2022-12-28T06:02:44;15.10;;;7.57;;
6739;SDS011;3407;49.882;10.920;2022-12-28T06:07:40;12.07;;;7.43;;
6739;SDS011;3407;49.882;10.920;2022-12-28T06:12:35;9.93;;;7.93;;
6739;SDS011;3407;49.882;10.920;2022-12-28T06:17:31;9.43;;;7.13;;
6739;SDS011;3407;49.882;10.920;2022-12-28T06:22:26;8.57;;;7.00;;
6739;SDS011;3407;49.882;10.920;2022-12-28T06:27:22;9.10;;;6.90;;
6739;SDS011;3407;49.882;10.920;2022-12-28T06:32:18;9.20;;;6.73;;
6739;SDS011;3407;49.882;10.920;2022-12-28T06:37:13;10.20;;;7.13;;
6739;SDS011;3407;49.882;10.920;2022-12-28T06:42:09;10.57;;;7.57;;
6739;SDS011;3407;49.882;10.920;2022-12-28T06:47:04;8.80;;;7.70;;
6739;SDS011;3407;49.882;10.920;2022-12-28T06:51:59;11.17;;;7.60;;
6739;SDS011;3407;49.882;10.920;2022-12-28T06:56:55;9.83;;;7.17;;
6739;SDS011;3407;49.882;10.920;2022-12-28T07:01:50;10.43;;;7.13;;
6739;SDS011;3407;49.882;10.920;2022-12-28T07:06:46;11.53;;;7.57;;
6739;SDS011;3407;49.882;10.920;2022-12-28T07:11:42;8.67;;;6.80;;
6739;SDS011;3407;49.882;10.920;2022-12-28T07:16:38;9.83;;;7.83;;
6739;SDS011;3407;49.882;10.920;2022-12-28T07:21:36;17.53;;;11.07;;
6739;SDS011;3407;49.882;10.920;2022-12-28T07:26:33;9.87;;;6.57;;
6739;SDS011;3407;49.882;10.920;2022-12-28T07:31:31;8.93;;;6.20;;
6739;SDS011;3407;49.882;10.920;2022-12-28T07:36:29;7.97;;;6.43;;
6739;SDS011;3407;49.882;10.920;2022-12-28T07:41:26;6.93;;;5.77;;
6739;SDS011;3407;49.882;10.920;2022-12-28T07:46:24;8.23;;;5.37;;
6739;SDS011;3407;49.882;10.920;2022-12-28T07:51:26;9.17;;;5.73;;
6739;SDS011;3407;49.882;10.920;2022-12-28T07:56:23;7.67;;;5.53;;
6739;SDS011;3407;49.882;10.920;2022-12-28T08:01:20;7.10;;;6.03;;
6739;SDS011;3407;49.882;10.920;2022-12-28T08:06:18;6.33;;;5.30;;
6739;SDS011;3407;49.882;10.920;2022-12-28T08:11:17;7.37;;;6.23;;
6739;SDS011;3407;49.882;10.920;2022-12-28T08:16:16;6.73;;;6.03;;
6739;SDS011;3407;49.882;10.920;2022-12-28T08:21:14;7.83;;;5.77;;
6739;SDS011;3407;49.882;10.920;2022-12-28T08:26:16;8.23;;;6.63;;
6739;SDS011;3407;49.882;10.920;2022-12-28T08:31:20;7.77;;;6.67;;
6739;SDS011;3407;49.882;10.920;2022-12-28T08:36:21;9.57;;;4.90;;
6739;SDS011;3407;49.882;10.920;2022-12-28T08:41:18;8.90;;;6.77;;
6739;SDS011;3407;49.882;10.920;2022-12-28T08:46:16;7.97;;;6.43;;
6739;SDS011;3407;49.882;10.920;2022-12-28T08:51:15;10.17;;;6.60;;
6739;SDS011;3407;49.882;10.920;2022-12-28T08:56:12;6.80;;;6.03;;
6739;SDS011;3407;49.882;10.920;2022-12-28T09:01:11;7.33;;;5.90;;
6739;SDS011;3407;49.882;10.920;2022-12-28T09:06:09;6.67;;;5.50;;
6739;SDS011;3407;49.882;10.920;2022-12-28T09:11:07;8.87;;;6.23;;
6739;SDS011;3407;49.882;10.920;2022-12-28T09:16:06;5.53;;;4.97;;
6739;SDS011;3407;49.882;10.920;2022-12-28T09:21:04;6.20;;;5.43;;
6739;SDS011;3407;49.882;10.920;2022-12-28T09:26:06;9.60;;;5.83;;
6739;SDS011;3407;49.882;10.920;2022-12-28T09:31:03;8.37;;;5.73;;
6739;SDS011;3407;49.882;10.920;2022-12-28T09:36:00;7.40;;;5.80;;
6739;SDS011;3407;49.882;10.920;2022-12-28T09:40:56;4.80;;;4.27;;
6739;SDS011;3407;49.882;10.920;2022-12-28T09:45:52;10.33;;;6.40;;
6739;SDS011;3407;49.882;10.920;2022-12-28T09:50:49;5.40;;;4.90;;
6739;SDS011;3407;49.882;10.920;2022-12-28T09:56:20;8.83;;;5.23;;
6739;SDS011;3407;49.882;10.920;2022-12-28T10:01:25;4.43;;;4.00;;
6739;SDS011;3407;49.882;10.920;2022-12-28T10:06:23;6.30;;;4.63;;
6739;SDS011;3407;49.882;10.920;2022-12-28T10:11:27;4.07;;;3.67;;
6739;SDS011;3407;49.882;10.920;2022-12-28T10:16:29;5.73;;;4.80;;
6739;SDS011;3407;49.882;10.920;2022-12-28T10:21:31;5.03;;;4.40;;
6739;SDS011;3407;49.882;10.920;2022-12-28T10:26:28;5.80;;;4.60;;
6739;SDS011;3407;49.882;10.920;2022-12-28T10:31:31;6.13;;;5.07;;
6739;SDS011;3407;49.882;10.920;2022-12-28T10:36:31;5.70;;;4.67;;
6739;SDS011;3407;49.882;10.920;2022-12-28T10:41:32;5.90;;;4.27;;
6739;SDS011;3407;49.882;10.920;2022-12-28T10:46:31;4.73;;;4.23;;
6739;SDS011;3407;49.882;10.920;2022-12-28T10:51:26;4.53;;;4.03;;
6739;SDS011;3407;49.882;10.920;2022-12-28T10:56:24;4.67;;;4.07;;
6739;SDS011;3407;49.882;10.920;2022-12-28T11:01:28;6.10;;;3.87;;
6739;SDS011;3407;49.882;10.920;2022-12-28T11:06:25;5.40;;;3.50;;
6739;SDS011;3407;49.882;10.920;2022-12-28T11:11:22;4.50;;;3.50;;
6739;SDS011;3407;49.882;10.920;2022-12-28T11:16:18;4.20;;;3.80;;
6739;SDS011;3407;49.882;10.920;2022-12-28T11:21:17;7.60;;;3.73;;
6739;SDS011;3407;49.882;10.920;2022-12-28T11:26:14;4.10;;;3.67;;
6739;SDS011;3407;49.882;10.920;2022-12-28T11:31:15;4.07;;;3.30;;
6739;SDS011;3407;49.882;10.920;2022-12-28T11:36:20;4.27;;;3.07;;
6739;SDS011;3407;49.882;10.920;2022-12-28T11:51:22;5.30;;;2.83;;
6739;SDS011;3407;49.882;10.920;2022-12-28T11:56:19;4.00;;;3.40;;
6739;SDS011;3407;49.882;10.920;2022-12-28T12:11:38;3.43;;;2.83;;
6739;SDS011;3407;49.882;10.920;2022-12-28T12:16:39;5.23;;;3.60;;
6739;SDS011;3407;49.882;10.920;2022-12-28T12:22:05;3.90;;;3.33;;
6739;SDS011;3407;49.882;10.920;2022-12-28T12:27:17;4.60;;;3.33;;
6739;SDS011;3407;49.882;10.920;2022-12-28T12:32:23;6.23;;;3.10;;
6739;SDS011;3407;49.882;10.920;2022-12-28T12:48:19;3.10;;;2.90;;
6739;SDS011;3407;49.882;10.920;2022-12-28T13:04:31;2.90;;;2.70;;
6739;SDS011;3407;49.882;10.920;2022-12-28T13:09:29;3.30;;;2.93;;
6739;SDS011;3407;49.882;10.920;2022-12-28T13:14:28;2.83;;;2.60;;
6739;SDS011;3407;49.882;10.920;2022-12-28T13:19:24;3.20;;;2.90;;
6739;SDS011;3407;49.882;10.920;2022-12-28T13:24:26;3.23;;;2.90;;
6739;SDS011;3407;49.882;10.920;2022-12-28T13:29:25;3.03;;;2.47;;
6739;SDS011;3407;49.882;10.920;2022-12-28T13:34:30;3.43;;;2.87;;
6739;SDS011;3407;49.882;10.920;2022-12-28T13:39:30;4.27;;;3.40;;
6739;SDS011;3407;49.882;10.920;2022-12-28T13:49:25;3.57;;;2.90;;
6739;SDS011;3407;49.882;10.920;2022-12-28T13:54:22;3.53;;;2.60;;
6739;SDS011;3407;49.882;10.920;2022-12-28T13:59:19;3.13;;;2.93;;
6739;SDS011;3407;49.882;10.920;2022-12-28T14:04:19;3.50;;;2.90;;
6739;SDS011;3407;49.882;10.920;2022-12-28T14:09:17;4.47;;;3.27;;
6739;SDS011;3407;49.882;10.920;2022-12-28T14:14:14;6.97;;;3.37;;
6739;SDS011;3407;49.882;10.920;2022-12-28T14:19:11;4.27;;;3.23;;
6739;SDS011;3407;49.882;10.920;2022-12-28T14:24:11;4.07;;;3.67;;
6739;SDS011;3407;49.882;10.920;2022-12-28T14:29:12;5.03;;;3.40;;
6739;SDS011;3407;49.882;10.920;2022-12-28T14:34:20;4.30;;;2.90;;
6739;SDS011;3407;49.882;10.920;2022-12-28T14:39:21;3.47;;;3.13;;
6739;SDS011;3407;49.882;10.920;2022-12-28T14:44:28;4.70;;;3.10;;
6739;SDS011;3407;49.882;10.920;2022-12-28T14:54:23;7.97;;;6.20;;
6739;SDS011;3407;49.882;10.920;2022-12-28T14:59:22;9.93;;;4.63;;
6739;SDS011;3407;49.882;10.920;2022-12-28T15:04:26;4.73;;;4.23;;
6739;SDS011;3407;49.882;10.920;2022-12-28T15:09:22;3.63;;;3.00;;
6739;SDS011;3407;49.882;10.920;2022-12-28T15:14:18;8.37;;;5.73;;
6739;SDS011;3407;49.882;10.920;2022-12-28T15:19:13;6.43;;;4.20;;
6739;SDS011;3407;49.882;10.920;2022-12-28T15:24:09;6.47;;;3.00;;
6739;SDS011;3407;49.882;10.920;2022-12-28T15:29:04;3.50;;;2.83;;
6739;SDS011;3407;49.882;10.920;2022-12-28T15:34:00;4.20;;;3.03;;
6739;SDS011;3407;49.882;10.920;2022-12-28T15:38:55;4.83;;;3.87;;
6739;SDS011;3407;49.882;10.920;2022-12-28T15:43:51;3.37;;;3.00;;
6739;SDS011;3407;49.882;10.920;2022-12-28T15:48:46;3.57;;;3.27;;
6739;SDS011;3407;49.882;10.920;2022-12-28T15:53:42;3.87;;;3.57;;
6739;SDS011;3407;49.882;10.920;2022-12-28T15:58:37;5.30;;;3.80;;
6739;SDS011;3407;49.882;10.920;2022-12-28T16:03:33;6.10;;;3.60;;
6739;SDS011;3407;49.882;10.920;2022-12-28T16:08:28;6.67;;;3.23;;
6739;SDS011;3407;49.882;10.920;2022-12-28T16:13:24;6.80;;;3.90;;
6739;SDS011;3407;49.882;10.920;2022-12-28T16:18:19;5.43;;;3.80;;
6739;SDS011;3407;49.882;10.920;2022-12-28T16:23:15;4.87;;;3.83;;
6739;SDS011;3407;49.882;10.920;2022-12-28T16:28:10;3.47;;;3.00;;
6739;SDS011;3407;49.882;10.920;2022-12-28T16:33:06;3.80;;;3.50;;
6739;SDS011;3407;49.882;10.920;2022-12-28T16:38:01;5.80;;;3.90;;
6739;SDS011;3407;49.882;10.920;2022-12-28T16:42:57;5.10;;;3.33;;
6739;SDS011;3407;49.882;10.920;2022-12-28T16:47:52;5.57;;;3.90;;
6739;SDS011;3407;49.882;10.920;2022-12-28T16:52:48;3.77;;;3.43;;
6739;SDS011;3407;49.882;10.920;2022-12-28T16:57:43;4.53;;;3.80;;
6739;SDS011;3407;49.882;10.920;2022-12-28T17:02:39;4.60;;;4.10;;
6739;SDS011;3407;49.882;10.920;2022-12-28T17:07:34;6.77;;;3.60;;
6739;SDS011;3407;49.882;10.920;2022-12-28T17:12:30;5.93;;;3.90;;
6739;SDS011;3407;49.882;10.920;2022-12-28T17:17:25;3.63;;;3.33;;
6739;SDS011;3407;49.882;10.920;2022-12-28T17:22:21;4.40;;;3.37;;
6739;SDS011;3407;49.882;10.920;2022-12-28T17:27:17;9.97;;;4.00;;
6739;SDS011;3407;49.882;10.920;2022-12-28T17:32:15;4.97;;;3.40;;
6739;SDS011;3407;49.882;10.920;2022-12-28T17:37:11;3.73;;;3.30;;
6739;SDS011;3407;49.882;10.920;2022-12-28T17:42:07;4.00;;;3.60;;
6739;SDS011;3407;49.882;10.920;2022-12-28T17:47:03;3.63;;;3.33;;
6739;SDS011;3407;49.882;10.920;2022-12-28T17:51:58;4.33;;;3.33;;
6739;SDS011;3407;49.882;10.920;2022-12-28T17:56:54;3.77;;;2.93;;
6739;SDS011;3407;49.882;10.920;2022-12-28T18:01:49;5.33;;;3.10;;
6739;SDS011;3407;49.882;10.920;2022-12-28T18:06:45;3.37;;;3.17;;
6739;SDS011;3407;49.882;10.920;2022-12-28T18:11:41;3.60;;;3.30;;
6739;SDS011;3407;49.882;10.920;2022-12-28T18:16:36;3.57;;;3.23;;
6739;SDS011;3407;49.882;10.920;2022-12-28T18:21:32;3.97;;;3.40;;
6739;SDS011;3407;49.882;10.920;2022-12-28T18:26:27;5.97;;;3.50;;
6739;SDS011;3407;49.882;10.920;2022-12-28T18:31:23;3.77;;;3.47;;
6739;SDS011;3407;49.882;10.920;2022-12-28T18:36:19;4.00;;;3.00;;
6739;SDS011;3407;49.882;10.920;2022-12-28T18:41:15;4.30;;;3.30;;
6739;SDS011;3407;49.882;10.920;2022-12-28T18:46:12;4.40;;;3.37;;
6739;SDS011;3407;49.882;10.920;2022-12-28T18:51:12;3.50;;;3.20;;
6739;SDS011;3407;49.882;10.920;2022-12-28T18:56:15;5.07;;;3.80;;
6739;SDS011;3407;49.882;10.920;2022-12-28T19:01:14;4.17;;;3.40;;
6739;SDS011;3407;49.882;10.920;2022-12-28T19:06:16;3.80;;;3.13;;
6739;SDS011;3407;49.882;10.920;2022-12-28T19:11:11;5.07;;;3.20;;
6739;SDS011;3407;49.882;10.920;2022-12-28T19:16:09;3.30;;;3.00;;
6739;SDS011;3407;49.882;10.920;2022-12-28T19:21:40;3.23;;;2.97;;
6739;SDS011;3407;49.882;10.920;2022-12-28T19:26:29;5.63;;;5.13;;
6739;SDS011;3407;49.882;10.920;2022-12-28T19:31:26;6.47;;;3.57;;
6739;SDS011;3407;49.882;10.920;2022-12-28T19:36:22;5.20;;;4.53;;
6739;SDS011;3407;49.882;10.920;2022-12-28T19:41:18;10.00;;;7.47;;
6739;SDS011;3407;49.882;10.920;2022-12-28T19:46:15;6.17;;;4.93;;
6739;SDS011;3407;49.882;10.920;2022-12-28T19:51:13;6.20;;;5.60;;
6739;SDS011;3407;49.882;10.920;2022-12-28T19:56:12;5.37;;;4.80;;
6739;SDS011;3407;49.882;10.920;2022-12-28T20:01:12;5.80;;;3.87;;
6739;SDS011;3407;49.882;10.920;2022-12-28T20:06:12;4.67;;;4.00;;
6739;SDS011;3407;49.882;10.920;2022-12-28T20:11:13;3.60;;;3.30;;
6739;SDS011;3407;49.882;10.920;2022-12-28T20:16:08;4.20;;;3.80;;
6739;SDS011;3407;49.882;10.920;2022-12-28T20:21:05;4.33;;;3.93;;
6739;SDS011;3407;49.882;10.920;2022-12-28T20:26:01;3.70;;;3.33;;
6739;SDS011;3407;49.882;10.920;2022-12-28T20:31:04;5.37;;;3.93;;
6739;SDS011;3407;49.882;10.920;2022-12-28T20:36:02;10.77;;;7.23;;
6739;SDS011;3407;49.882;10.920;2022-12-28T20:41:06;6.10;;;4.70;;
6739;SDS011;3407;49.882;10.920;2022-12-28T20:46:03;8.10;;;5.50;;
6739;SDS011;3407;49.882;10.920;2022-12-28T20:51:04;3.63;;;3.33;;
6739;SDS011;3407;49.882;10.920;2022-12-28T20:56:06;4.27;;;3.50;;
6739;SDS011;3407;49.882;10.920;2022-12-28T21:01:04;4.90;;;4.23;;
6739;SDS011;3407;49.882;10.920;2022-12-28T21:06:01;6.37;;;4.73;;
6739;SDS011;3407;49.882;10.920;2022-12-28T21:10:57;7.67;;;5.23;;
6739;SDS011;3407;49.882;10.920;2022-12-28T21:15:53;7.53;;;5.83;;
6739;SDS011;3407;49.882;10.920;2022-12-28T21:20:50;4.83;;;3.80;;
6739;SDS011;3407;49.882;10.920;2022-12-28T21:25:49;5.10;;;4.40;;
6739;SDS011;3407;49.882;10.920;2022-12-28T21:30:51;4.47;;;3.67;;
6739;SDS011;3407;49.882;10.920;2022-12-28T21:36:00;4.20;;;3.80;;
6739;SDS011;3407;49.882;10.920;2022-12-28T21:40:58;5.37;;;4.23;;
6739;SDS011;3407;49.882;10.920;2022-12-28T21:45:57;5.17;;;4.40;;
6739;SDS011;3407;49.882;10.920;2022-12-28T21:50:54;5.10;;;3.63;;
6739;SDS011;3407;49.882;10.920;2022-12-28T21:55:49;4.53;;;3.80;;
6739;SDS011;3407;49.882;10.920;2022-12-28T22:00:45;4.27;;;3.87;;
6739;SDS011;3407;49.882;10.920;2022-12-28T22:06:00;4.30;;;3.30;;
6739;SDS011;3407;49.882;10.920;2022-12-28T22:11:00;4.27;;;3.87;;
6739;SDS011;3407;49.882;10.920;2022-12-28T22:16:14;3.67;;;3.37;;
6739;SDS011;3407;49.882;10.920;2022-12-28T22:21:10;3.57;;;2.90;;
6739;SDS011;3407;49.882;10.920;2022-12-28T22:26:05;3.57;;;3.27;;
6739;SDS011;3407;49.882;10.920;2022-12-28T22:31:04;2.87;;;2.67;;
6739;SDS011;3407;49.882;10.920;2022-12-28T22:36:14;3.67;;;3.07;;
6739;SDS011;3407;49.882;10.920;2022-12-28T22:41:11;3.23;;;2.93;;
6739;SDS011;3407;49.882;10.920;2022-12-28T22:46:08;3.43;;;3.13;;
6739;SDS011;3407;49.882;10.920;2022-12-28T22:51:05;3.93;;;2.70;;
6739;SDS011;3407;49.882;10.920;2022-12-28T22:56:08;3.20;;;2.90;;
6739;SDS011;3407;49.882;10.920;2022-12-28T23:01:09;3.17;;;2.93;;
6739;SDS011;3407;49.882;10.920;2022-12-28T23:06:07;4.03;;;3.17;;
6739;SDS011;3407;49.882;10.920;2022-12-28T23:11:04;4.07;;;2.83;;
6739;SDS011;3407;49.882;10.920;2022-12-28T23:16:20;3.10;;;2.80;;
6739;SDS011;3407;49.882;10.920;2022-12-28T23:21:20;3.33;;;3.03;;
6739;SDS011;3407;49.882;10.920;2022-12-28T23:26:36;2.93;;;2.50;;
6739;SDS011;3407;49.882;10.920;2022-12-28T23:31:50;3.07;;;2.77;;
6739;SDS011;3407;49.882;10.920;2022-12-28T23:36:46;2.80;;;2.60;;
6739;SDS011;3407;49.882;10.920;2022-12-28T23:41:41;3.10;;;2.63;;
6739;SDS011;3407;49.882;10.920;2022-12-28T23:46:43;2.67;;;2.47;;
6739;SDS011;3407;49.882;10.920;2022-12-28T23:51:39;2.80;;;2.60;;
6739;SDS011;3407;49.882;10.920;2022-12-28T23:56:36;2.77;;;2.57;;
